createdAt,value
2023-03-06T00:01:06.712Z,9.15
2023-03-06T00:04:08.835Z,9.63
2023-03-06T00:07:11.327Z,8.43
2023-03-06T00:10:14.414Z,8.93
2023-03-06T00:13:23.097Z,9.63
2023-03-06T00:16:25.927Z,8.68
2023-03-06T00:19:28.432Z,8.52
2023-03-06T00:22:30.736Z,8.90
2023-03-06T00:25:34.916Z,8.65
2023-03-06T00:28:37.374Z,8.75
2023-03-06T00:31:39.646Z,8.60
2023-03-06T00:34:42.150Z,9.20
2023-03-06T00:37:44.200Z,9.00
2023-03-06T00:40:46.290Z,9.60
2023-03-06T00:43:48.423Z,8.77
2023-03-06T00:46:50.526Z,8.95
2023-03-06T00:49:52.901Z,9.05
2023-03-06T00:52:54.946Z,8.60
2023-03-06T00:55:57.344Z,8.38
2023-03-06T00:58:59.887Z,9.30
2023-03-06T01:02:02.445Z,8.48
2023-03-06T01:05:04.887Z,8.23
2023-03-06T01:08:07.066Z,8.48
2023-03-06T01:11:09.125Z,9.07
2023-03-06T01:14:11.092Z,7.83
2023-03-06T01:17:13.208Z,8.50
2023-03-06T01:20:16.220Z,9.95
2023-03-06T01:23:18.301Z,9.27
2023-03-06T01:26:20.436Z,8.18
2023-03-06T01:29:22.960Z,10.82
2023-03-06T01:32:24.986Z,10.23
2023-03-06T01:35:27.107Z,9.53
2023-03-06T01:38:29.744Z,9.38
2023-03-06T01:41:32.864Z,8.45
2023-03-06T01:44:35.361Z,9.73
2023-03-06T01:47:37.404Z,8.60
2023-03-06T01:50:40.546Z,8.82
2023-03-06T01:53:43.674Z,8.07
2023-03-06T01:56:46.431Z,7.97
2023-03-06T01:59:53.052Z,7.72
2023-03-06T02:02:55.728Z,7.45
2023-03-06T02:05:57.861Z,7.43
2023-03-06T02:08:59.969Z,7.50
2023-03-06T02:12:02.697Z,7.07
2023-03-06T02:15:04.924Z,7.07
2023-03-06T02:18:06.932Z,7.65
2023-03-06T02:21:10.085Z,7.60
2023-03-06T02:24:33.154Z,7.63
2023-03-06T02:27:35.667Z,7.85
2023-03-06T02:30:37.646Z,7.25
2023-03-06T02:33:40.537Z,7.80
2023-03-06T02:37:03.148Z,7.53
2023-03-06T02:40:08.907Z,7.00
2023-03-06T02:43:11.564Z,7.07
2023-03-06T02:46:13.934Z,7.40
2023-03-06T02:49:16.064Z,7.72
2023-03-06T02:52:18.316Z,7.22
2023-03-06T02:55:20.356Z,7.40
2023-03-06T02:58:22.415Z,7.72
2023-03-06T03:01:24.691Z,7.88
2023-03-06T03:04:27.935Z,6.88
2023-03-06T03:07:30.377Z,7.13
2023-03-06T03:10:33.311Z,7.47
2023-03-06T03:13:35.541Z,6.35
2023-03-06T03:16:39.189Z,6.93
2023-03-06T03:19:41.336Z,6.80
2023-03-06T03:22:43.797Z,7.05
2023-03-06T03:25:46.435Z,6.97
2023-03-06T03:28:49.343Z,7.10
2023-03-06T03:31:54.555Z,7.72
2023-03-06T03:35:00.134Z,8.07
2023-03-06T03:38:03.318Z,7.67
2023-03-06T03:41:05.663Z,6.63
2023-03-06T03:44:08.903Z,6.55
2023-03-06T03:47:11.108Z,6.83
2023-03-06T03:50:13.824Z,7.25
2023-03-06T03:53:16.150Z,6.93
2023-03-06T03:56:18.764Z,5.80
2023-03-06T03:59:29.325Z,7.90
2023-03-06T04:02:47.853Z,5.82
2023-03-06T04:06:02.707Z,5.63
2023-03-06T04:09:05.092Z,5.80
2023-03-06T04:12:08.425Z,5.65
2023-03-06T04:15:12.270Z,7.15
2023-03-06T04:18:16.648Z,7.70
2023-03-06T04:21:19.420Z,6.90
2023-03-06T04:24:21.943Z,7.22
2023-03-06T04:27:24.076Z,7.47
2023-03-06T04:30:26.737Z,6.25
2023-03-06T04:33:29.403Z,7.07
2023-03-06T04:36:32.200Z,24.45
2023-03-06T04:39:39.762Z,6.73
2023-03-06T04:42:42.177Z,6.78
2023-03-06T04:45:44.875Z,6.53
2023-03-06T04:48:57.388Z,8.43
2023-03-06T04:51:59.905Z,7.35
2023-03-06T04:55:08.641Z,6.27
2023-03-06T04:58:11.712Z,6.03
2023-03-06T05:01:14.282Z,6.82
2023-03-06T05:04:16.366Z,8.47
2023-03-06T05:07:18.500Z,9.25
2023-03-06T05:10:20.670Z,11.88
2023-03-06T05:13:23.205Z,10.07
2023-03-06T05:16:25.665Z,9.27
2023-03-06T05:19:27.924Z,9.93
2023-03-06T05:22:29.907Z,10.70
2023-03-06T05:25:32.018Z,9.73
2023-03-06T05:28:34.056Z,22.48
2023-03-06T05:31:36.328Z,11.30
2023-03-06T05:34:39.332Z,13.53
2023-03-06T05:37:41.508Z,11.25
2023-03-06T05:40:43.942Z,11.15
2023-03-06T05:43:46.169Z,10.43
2023-03-06T05:46:48.967Z,11.13
2023-03-06T05:49:51.443Z,11.45
2023-03-06T05:52:53.488Z,10.95
2023-03-06T05:55:56.482Z,10.33
2023-03-06T05:58:58.917Z,12.23
2023-03-06T06:02:01.449Z,12.32
2023-03-06T06:05:03.635Z,12.83
2023-03-06T06:08:05.895Z,11.63
2023-03-06T06:11:08.614Z,10.43
2023-03-06T06:14:10.830Z,10.38
2023-03-06T06:17:12.983Z,9.23
2023-03-06T06:20:21.717Z,9.05
2023-03-06T06:23:24.031Z,11.38
2023-03-06T06:26:26.086Z,10.03
2023-03-06T06:29:28.307Z,9.90
2023-03-06T06:32:30.555Z,8.93
2023-03-06T06:35:35.443Z,9.30
2023-03-06T06:38:37.499Z,9.57
2023-03-06T06:41:56.895Z,8.95
2023-03-06T06:45:02.132Z,9.10
2023-03-06T06:48:04.920Z,9.15
2023-03-06T06:51:06.960Z,11.60
2023-03-06T06:54:09.769Z,13.85
2023-03-06T06:57:12.603Z,12.13
2023-03-06T07:00:15.462Z,12.93
2023-03-06T07:03:17.920Z,12.38
2023-03-06T07:06:20.071Z,9.47
2023-03-06T07:09:22.581Z,8.93
2023-03-06T07:12:25.254Z,9.57
2023-03-06T07:15:29.990Z,9.00
2023-03-06T07:18:32.302Z,8.90
2023-03-06T07:21:34.599Z,10.02
2023-03-06T07:25:03.530Z,9.48
2023-03-06T07:28:08.709Z,8.40
2023-03-06T07:31:11.736Z,8.77
2023-03-06T07:34:14.330Z,9.70
2023-03-06T07:37:16.456Z,7.87
2023-03-06T07:40:19.707Z,7.70
2023-03-06T07:43:22.240Z,7.93
2023-03-06T07:46:30.661Z,7.43
2023-03-06T07:49:33.070Z,7.07
2023-03-06T07:52:35.113Z,9.20
2023-03-06T07:55:39.633Z,10.93
2023-03-06T07:58:42.961Z,10.77
2023-03-06T08:01:45.526Z,10.75
2023-03-06T08:04:56.805Z,11.48
2023-03-06T08:07:59.493Z,10.90
2023-03-06T08:11:01.552Z,9.55
2023-03-06T08:14:04.304Z,10.00
2023-03-06T08:17:06.745Z,8.80
2023-03-06T08:20:10.563Z,8.48
2023-03-06T08:23:13.020Z,9.52
2023-03-06T08:26:16.327Z,9.40
2023-03-06T08:29:18.764Z,8.43
2023-03-06T08:32:20.970Z,9.48
2023-03-06T08:35:23.300Z,9.13
2023-03-06T08:38:25.944Z,9.33
2023-03-06T08:41:28.323Z,9.68
2023-03-06T08:44:30.406Z,9.60
2023-03-06T08:47:32.357Z,9.38
2023-03-06T08:50:34.586Z,9.50
2023-03-06T08:53:43.139Z,8.85
2023-03-06T08:56:46.239Z,10.30
2023-03-06T08:59:48.770Z,9.87
2023-03-06T09:02:51.357Z,10.07
2023-03-06T09:05:53.780Z,10.23
2023-03-06T09:08:55.932Z,9.00
2023-03-06T09:11:58.301Z,9.32
2023-03-06T09:15:02.509Z,10.05
2023-03-06T09:18:05.000Z,10.68
2023-03-06T09:21:07.801Z,8.73
2023-03-06T09:24:09.921Z,8.88
2023-03-06T09:27:12.530Z,9.65
2023-03-06T09:30:14.769Z,8.50
2023-03-06T09:33:17.176Z,9.45
2023-03-06T09:36:21.137Z,8.35
2023-03-06T09:39:24.034Z,8.40
2023-03-06T09:42:26.111Z,8.20
2023-03-06T09:45:36.771Z,7.53
2023-03-06T09:48:51.765Z,8.18
2023-03-06T09:52:14.770Z,7.57
2023-03-06T09:55:18.284Z,6.38
2023-03-06T09:58:21.113Z,7.57
2023-03-06T10:01:24.673Z,6.70
2023-03-06T10:04:30.147Z,6.20
2023-03-06T10:07:51.846Z,6.07
2023-03-06T10:10:58.014Z,5.97
2023-03-06T10:14:26.956Z,6.22
2023-03-06T10:17:36.082Z,6.55
2023-03-06T10:20:43.795Z,6.20
2023-03-06T10:23:57.023Z,7.00
2023-03-06T10:27:21.569Z,7.20
2023-03-06T10:30:26.755Z,8.00
2023-03-06T10:33:33.803Z,7.30
2023-03-06T10:36:36.221Z,7.35
2023-03-06T10:39:39.300Z,8.65
2023-03-06T10:42:41.304Z,7.80
2023-03-06T10:45:50.619Z,7.70
2023-03-06T10:49:00.155Z,7.82
2023-03-06T10:52:06.839Z,7.70
2023-03-06T10:55:28.358Z,7.28
2023-03-06T10:58:31.251Z,8.05
2023-03-06T11:01:33.981Z,7.55
2023-03-06T11:04:36.390Z,7.33
2023-03-06T11:07:40.963Z,7.40
2023-03-06T11:10:45.051Z,8.10
2023-03-06T11:13:47.747Z,7.47
2023-03-06T11:16:53.381Z,7.57
2023-03-06T11:20:14.763Z,9.65
2023-03-06T11:23:20.053Z,9.05
2023-03-06T11:26:31.580Z,8.30
2023-03-06T11:29:44.330Z,6.68
2023-03-06T11:32:58.254Z,9.07
2023-03-06T11:36:16.142Z,7.30
2023-03-06T11:39:23.932Z,8.43
2023-03-06T11:42:42.852Z,8.57
2023-03-06T11:45:46.844Z,11.33
2023-03-06T11:49:08.115Z,7.72
2023-03-06T11:52:36.684Z,10.27
2023-03-06T11:55:47.606Z,11.02
2023-03-06T11:58:49.721Z,13.40
2023-03-06T12:01:58.090Z,8.27
2023-03-06T12:05:03.295Z,8.80
2023-03-06T12:08:12.778Z,14.85
2023-03-06T12:11:20.244Z,8.77
2023-03-06T12:14:40.263Z,8.45
2023-03-06T12:18:01.256Z,7.68
2023-03-06T12:21:04.736Z,7.30
2023-03-06T12:24:25.986Z,7.53
2023-03-06T12:27:28.042Z,8.45
2023-03-06T12:30:36.562Z,8.50
2023-03-06T12:33:49.105Z,7.37
2023-03-06T12:36:58.111Z,8.20
2023-03-06T12:40:06.704Z,7.95
2023-03-06T12:43:15.077Z,8.70
2023-03-06T12:46:17.852Z,9.82
2023-03-06T12:49:31.914Z,9.05
2023-03-06T12:52:35.272Z,9.18
2023-03-06T12:55:41.104Z,8.97
2023-03-06T12:58:55.417Z,8.82
2023-03-06T13:02:06.758Z,9.13
2023-03-06T13:05:12.113Z,8.93
2023-03-06T13:08:22.958Z,9.18
2023-03-06T13:12:02.446Z,9.02
2023-03-06T13:15:25.941Z,9.05
2023-03-06T13:18:28.429Z,8.90
2023-03-06T13:21:46.726Z,8.98
2023-03-06T13:24:50.839Z,11.05
2023-03-06T13:27:55.795Z,15.00
2023-03-06T13:30:57.890Z,14.77
2023-03-06T13:34:00.920Z,12.38
2023-03-06T13:37:24.979Z,12.98
2023-03-06T13:40:36.455Z,9.48
2023-03-06T13:43:40.822Z,8.90
2023-03-06T13:46:43.379Z,9.98
2023-03-06T13:49:45.628Z,10.67
2023-03-06T13:52:56.440Z,12.45
2023-03-06T13:56:17.187Z,10.23
2023-03-06T13:59:43.028Z,10.70
2023-03-06T14:02:55.484Z,9.10
2023-03-06T14:05:59.138Z,8.93
2023-03-06T14:09:04.274Z,10.40
2023-03-06T14:12:08.240Z,8.65
2023-03-06T14:15:20.388Z,8.85
2023-03-06T14:18:25.229Z,9.05
2023-03-06T14:21:37.119Z,9.50
2023-03-06T14:24:43.640Z,9.85
2023-03-06T14:27:51.643Z,9.82
2023-03-06T14:30:54.535Z,9.77
2023-03-06T14:34:08.553Z,9.00
2023-03-06T14:37:24.668Z,8.98
2023-03-06T14:40:31.013Z,9.98
2023-03-06T14:43:33.130Z,10.10
2023-03-06T14:46:35.546Z,10.48
2023-03-06T14:49:37.972Z,8.32
2023-03-06T14:52:40.232Z,9.57
2023-03-06T14:55:48.404Z,9.57
2023-03-06T14:58:58.318Z,10.00
2023-03-06T15:02:01.159Z,10.00
2023-03-06T15:05:04.889Z,10.90
2023-03-06T15:08:07.264Z,10.30
2023-03-06T15:11:09.762Z,10.77
2023-03-06T15:14:18.957Z,10.60
2023-03-06T15:17:21.926Z,11.10
2023-03-06T15:20:37.457Z,11.25
2023-03-06T15:23:43.199Z,10.10
2023-03-06T15:26:45.319Z,9.85
2023-03-06T15:29:47.715Z,9.80
2023-03-06T15:32:50.071Z,10.27
2023-03-06T15:35:53.067Z,13.93
2023-03-06T15:39:00.101Z,10.70
2023-03-06T15:42:17.293Z,10.48
2023-03-06T15:45:21.884Z,9.87
2023-03-06T15:48:23.955Z,11.45
2023-03-06T15:51:39.376Z,10.45
2023-03-06T15:54:42.678Z,10.77
2023-03-06T15:57:48.465Z,11.07
2023-03-06T16:00:50.665Z,10.98
2023-03-06T16:03:52.764Z,11.25
2023-03-06T16:06:55.068Z,12.05
2023-03-06T16:10:02.758Z,12.55
2023-03-06T16:13:06.775Z,12.77
2023-03-06T16:16:11.381Z,10.33
2023-03-06T16:19:25.360Z,12.80
2023-03-06T16:22:28.450Z,12.15
2023-03-06T16:25:31.106Z,13.80
2023-03-06T16:28:33.333Z,12.15
2023-03-06T16:31:35.363Z,11.63
2023-03-06T16:34:37.381Z,11.93
2023-03-06T16:37:40.481Z,12.18
2023-03-06T16:40:42.771Z,11.02
2023-03-06T16:43:44.802Z,12.32
2023-03-06T16:46:47.395Z,12.37
2023-03-06T16:49:49.969Z,12.57
2023-03-06T16:52:52.729Z,11.73
2023-03-06T16:55:54.852Z,10.77
2023-03-06T16:58:56.984Z,11.02
2023-03-06T17:02:01.227Z,10.70
2023-03-06T17:05:03.976Z,11.13
2023-03-06T17:08:07.212Z,12.77
2023-03-06T17:11:09.641Z,12.43
2023-03-06T17:14:11.686Z,12.38
2023-03-06T17:17:13.882Z,11.13
2023-03-06T17:20:15.950Z,11.13
2023-03-06T17:23:19.152Z,10.68
2023-03-06T17:26:21.222Z,11.17
2023-03-06T17:29:23.338Z,11.13
2023-03-06T17:32:25.950Z,10.50
2023-03-06T17:35:28.147Z,13.10
2023-03-06T17:38:30.305Z,12.05
2023-03-06T17:41:34.113Z,14.18
2023-03-06T17:44:36.306Z,15.05
2023-03-06T17:47:38.330Z,14.50
2023-03-06T17:50:40.796Z,16.73
2023-03-06T17:53:42.828Z,13.02
2023-03-06T17:56:45.131Z,10.67
2023-03-06T17:59:48.658Z,10.75
2023-03-06T18:02:51.103Z,11.30
2023-03-06T18:06:00.153Z,10.52
2023-03-06T18:09:03.053Z,11.43
2023-03-06T18:12:05.090Z,10.55
2023-03-06T18:15:07.894Z,10.88
2023-03-06T18:18:10.363Z,10.23
2023-03-06T18:21:13.102Z,11.55
2023-03-06T18:24:15.746Z,10.50
2023-03-06T18:27:17.993Z,10.53
2023-03-06T18:30:20.021Z,9.93
2023-03-06T18:33:22.047Z,11.43
2023-03-06T18:36:24.505Z,16.35
2023-03-06T18:39:27.124Z,15.32
2023-03-06T18:42:29.120Z,15.02
2023-03-06T18:45:31.138Z,15.27
2023-03-06T18:48:33.571Z,14.20
2023-03-06T18:51:35.690Z,12.68
2023-03-06T18:54:37.990Z,13.55
2023-03-06T18:57:40.301Z,12.70
2023-03-06T19:00:43.436Z,12.48
2023-03-06T19:03:45.741Z,12.73
2023-03-06T19:06:48.089Z,12.00
2023-03-06T19:09:50.277Z,12.50
2023-03-06T19:12:52.425Z,13.65
2023-03-06T19:15:57.140Z,13.18
2023-03-06T19:18:59.261Z,15.70
2023-03-06T19:22:02.034Z,15.90
2023-03-06T19:25:04.805Z,14.82
2023-03-06T19:28:07.325Z,15.47
2023-03-06T19:31:10.007Z,15.30
2023-03-06T19:34:12.070Z,16.55
2023-03-06T19:37:14.514Z,14.90
2023-03-06T19:40:16.731Z,14.07
2023-03-06T19:43:18.719Z,13.48
2023-03-06T19:46:21.374Z,14.07
2023-03-06T19:49:23.898Z,13.83
2023-03-06T19:52:26.364Z,14.68
2023-03-06T19:55:28.729Z,13.73
2023-03-06T19:58:30.710Z,15.50
2023-03-06T20:01:34.345Z,18.25
2023-03-06T20:04:36.547Z,19.95
2023-03-06T20:07:38.488Z,19.55
2023-03-06T20:10:40.485Z,19.23
2023-03-06T20:13:47.205Z,17.92
2023-03-06T20:16:50.193Z,18.50
2023-03-06T20:19:52.665Z,18.60
2023-03-06T20:22:55.183Z,20.20
2023-03-06T20:26:09.488Z,19.65
2023-03-06T20:29:11.810Z,20.33
2023-03-06T20:32:13.786Z,19.55
2023-03-06T20:35:15.872Z,29.52
2023-03-06T20:38:18.068Z,25.65
2023-03-06T20:41:22.621Z,27.50
2023-03-06T20:44:24.602Z,28.10
2023-03-06T20:47:26.963Z,27.25
2023-03-06T20:50:29.611Z,28.57
2023-03-06T20:53:31.778Z,27.58
2023-03-06T20:56:34.230Z,33.13
2023-03-06T20:59:36.576Z,28.03
2023-03-06T21:02:38.669Z,28.45
2023-03-06T21:05:40.658Z,25.23
2023-03-06T21:08:42.766Z,24.38
2023-03-06T21:11:44.861Z,24.77
2023-03-06T21:14:46.829Z,28.20
2023-03-06T21:17:48.949Z,26.70
2023-03-06T21:20:57.871Z,23.50
2023-03-06T21:24:00.214Z,25.27
2023-03-06T21:27:02.236Z,22.88
2023-03-06T21:30:05.006Z,23.53
2023-03-06T21:33:10.594Z,21.85
2023-03-06T21:36:13.089Z,21.33
2023-03-06T21:39:15.209Z,22.20
2023-03-06T21:42:17.633Z,22.35
2023-03-06T21:45:19.973Z,20.02
2023-03-06T21:48:21.997Z,22.23
2023-03-06T21:51:24.287Z,22.67
2023-03-06T21:54:27.134Z,22.77
2023-03-06T21:57:29.152Z,22.92
2023-03-06T22:00:33.210Z,23.20
2023-03-06T22:03:35.324Z,24.75
2023-03-06T22:06:38.327Z,25.48
2023-03-06T22:09:40.397Z,26.15
2023-03-06T22:12:42.424Z,25.85
2023-03-06T22:15:51.398Z,26.48
2023-03-06T22:18:53.598Z,26.05
2023-03-06T22:21:55.760Z,27.13
2023-03-06T22:24:58.084Z,24.42
2023-03-06T22:27:59.989Z,21.67
2023-03-06T22:31:05.837Z,23.50
2023-03-06T22:34:08.024Z,24.00
2023-03-06T22:37:10.083Z,23.05
2023-03-06T22:40:12.231Z,23.95
2023-03-06T22:43:14.633Z,22.42
2023-03-06T22:46:17.277Z,22.55
2023-03-06T22:49:19.692Z,22.33
2023-03-06T22:52:21.728Z,24.13
2023-03-06T22:55:23.801Z,22.38
2023-03-06T22:58:25.860Z,21.92
2023-03-06T23:01:28.991Z,22.57
2023-03-06T23:04:31.116Z,22.13
2023-03-06T23:07:33.362Z,22.33
2023-03-06T23:10:38.883Z,23.73
2023-03-06T23:13:59.828Z,21.23
2023-03-06T23:17:20.333Z,21.13
2023-03-06T23:20:44.134Z,21.70
2023-03-06T23:24:05.651Z,22.23
2023-03-06T23:27:07.782Z,22.83
2023-03-06T23:30:10.053Z,22.90
2023-03-06T23:33:12.026Z,24.20
2023-03-06T23:36:14.809Z,27.15
2023-03-06T23:39:16.944Z,25.73
2023-03-06T23:42:20.057Z,25.75
2023-03-06T23:45:22.237Z,25.40
2023-03-06T23:48:25.128Z,22.55
2023-03-06T23:51:27.091Z,22.50
2023-03-06T23:54:29.496Z,23.07
2023-03-06T23:57:32.063Z,24.17
